Time;durP1;ratioP1;P1;durP2;ratioP2;P2;SDS_P1;SDS_P2;PMS_P1;PMS_P2;Temp;Humidity;BMP_temperature;BMP_pressure;BME280_temperature;BME280_humidity;BME280_pressure;Samples;Min_cycle;Max_cycle;Signal;HPM_P1;HPM_P2
2021/05/06 00:04:34;;;;;;;5.35;2.80;;;;;;;13.25;56.30;98439.44;1653065;83;21225;-73
2021/05/06 00:07:16;;;;;;;6.65;3.00;;;;;;;13.23;56.45;98439.25;1719200;83;21727;-73
2021/05/06 00:33:14;;;;;;;3.87;2.45;;;;;;;12.78;56.43;98408.78;1639728;83;21654;-74
2021/05/06 00:35:44;;;;;;;3.95;2.67;;;;;;;12.73;56.40;98411.56;1694532;83;21476;-74
2021/05/06 00:38:17;;;;;;;4.90;2.62;;;;;;;12.70;56.38;98403.42;1694272;84;21174;-73
2021/05/06 00:45:01;;;;;;;14.38;3.10;;;;;;;12.65;56.39;98392.92;1696940;83;21134;-74
2021/05/06 01:04:38;;;;;;;4.37;3.05;;;;;;;12.52;55.80;98380.92;1707411;83;21579;-73
2021/05/06 01:09:38;;;;;;;4.28;2.80;;;;;;;12.51;55.78;98368.64;1691184;83;21154;-74
2021/05/06 01:12:02;;;;;;;6.00;2.67;;;;;;;12.50;55.71;98373.60;1719616;83;21309;-74
2021/05/06 01:14:33;;;;;;;3.30;2.47;;;;;;;12.48;55.68;98378.24;1707229;83;21159;-74
2021/05/06 01:17:18;;;;;;;4.92;2.70;;;;;;;12.44;55.57;98367.58;1703533;83;21158;-74
2021/05/06 01:19:47;;;;;;;5.00;2.70;;;;;;;12.42;55.65;98373.55;1722369;82;21655;-74
2021/05/06 01:22:14;;;;;;;3.58;2.58;;;;;;;12.38;55.72;98366.39;1720979;82;21204;-74
2021/05/06 01:24:45;;;;;;;4.17;2.45;;;;;;;12.35;55.76;98379.11;1710873;83;21321;-74
2021/05/06 01:27:15;;;;;;;5.17;2.70;;;;;;;12.33;55.60;98378.42;1710800;82;21697;-74
2021/05/06 01:32:25;;;;;;;3.80;2.47;;;;;;;12.32;55.58;98379.44;1698242;82;21296;-74
2021/05/06 01:34:55;;;;;;;6.10;2.80;;;;;;;12.33;55.48;98374.45;1721878;83;21180;-74
2021/05/06 01:37:23;;;;;;;3.80;2.60;;;;;;;12.33;55.40;98370.47;1719631;83;21324;-74
2021/05/06 01:40:03;;;;;;;4.45;2.75;;;;;;;12.35;55.09;98372.48;1695513;83;21623;-74
2021/05/06 01:42:24;;;;;;;5.10;2.80;;;;;;;12.37;54.97;98359.92;1693079;83;21202;-74
2021/05/06 01:47:23;;;;;;;3.40;2.58;;;;;;;12.36;55.04;98355.59;1694691;85;21170;-74
2021/05/06 01:50:09;;;;;;;4.12;2.70;;;;;;;12.34;55.09;98359.73;1694013;85;21297;-74
2021/05/06 02:00:28;;;;;;;6.37;2.70;;;;;;;12.32;55.16;98342.32;1723547;83;21127;-74
2021/05/06 02:02:56;;;;;;;3.10;2.60;;;;;;;12.26;55.20;98340.63;1713766;83;21305;-74
2021/05/06 02:05:25;;;;;;;4.20;2.70;;;;;;;12.23;55.31;98338.27;1702066;84;21301;-74
2021/05/06 02:07:52;;;;;;;4.95;2.90;;;;;;;12.21;55.32;98335.42;1710139;83;21608;-74
2021/05/06 02:10:26;;;;;;;3.87;2.55;;;;;;;12.20;55.29;98342.55;1723474;83;21305;-73
2021/05/06 02:12:56;;;;;;;5.40;2.70;;;;;;;12.19;55.58;98336.91;1723255;83;21321;-74
2021/05/06 02:15:34;;;;;;;3.92;2.80;;;;;;;12.17;55.58;98339.37;1728388;81;21170;-74
2021/05/06 02:17:56;;;;;;;5.87;2.92;;;;;;;12.13;55.58;98337.05;1695852;84;21194;-73
2021/05/06 02:20:23;;;;;;;4.95;2.85;;;;;;;12.12;55.69;98333.20;1697125;84;21152;-74
2021/05/06 02:22:51;;;;;;;6.58;2.90;;;;;;;12.06;55.87;98329.83;1667008;83;21336;-73
2021/05/06 02:25:20;;;;;;;3.90;2.83;;;;;;;12.02;56.05;98333.30;1699909;83;21176;-73
2021/05/06 02:27:49;;;;;;;3.42;2.60;;;;;;;11.99;56.22;98338.06;1724804;83;21496;-73
2021/05/06 02:30:17;;;;;;;4.00;2.77;;;;;;;11.96;56.18;98336.05;1727405;83;21174;-73
2021/05/06 02:32:45;;;;;;;4.33;3.15;;;;;;;11.92;56.50;98322.73;1695402;84;21168;-74
2021/05/06 02:35:13;;;;;;;6.10;3.12;;;;;;;11.87;56.57;98340.90;1698921;84;21660;-74
2021/05/06 02:37:43;;;;;;;6.80;2.65;;;;;;;11.84;56.62;98336.39;1702472;83;21281;-74
2021/05/06 02:40:10;;;;;;;5.25;2.67;;;;;;;11.82;56.81;98344.50;1727821;83;21346;-74
2021/05/06 02:42:38;;;;;;;3.67;2.80;;;;;;;11.77;57.01;98350.73;1718072;83;21382;-74
2021/05/06 02:45:08;;;;;;;3.65;2.83;;;;;;;11.71;57.14;98344.70;1700342;83;21746;-74
2021/05/06 02:47:35;;;;;;;5.10;2.83;;;;;;;11.68;57.40;98337.89;1701433;83;21289;-74
2021/05/06 02:50:07;;;;;;;3.58;2.50;;;;;;;11.63;57.46;98345.45;1711532;83;21172;-74
2021/05/06 03:03:01;;;;;;;4.97;2.75;;;;;;;11.53;58.03;98349.48;1715769;83;21612;-74
2021/05/06 03:05:32;;;;;;;6.45;3.10;;;;;;;11.50;58.28;98351.11;1718517;83;21659;-74
2021/05/06 03:21:32;;;;;;;5.22;3.05;;;;;;;12.05;57.51;98338.28;1711873;82;21183;-73
2021/05/06 03:23:39;;;;;;;4.78;2.90;;;;;;;12.41;56.72;98350.67;1733918;82;21136;-74
2021/05/06 03:26:07;;;;;;;4.65;2.80;;;;;;;12.56;56.40;98349.63;1736894;82;21155;-73
2021/05/06 03:28:38;;;;;;;5.60;2.80;;;;;;;12.65;55.97;98337.23;1736919;82;21199;-73
2021/05/06 04:03:46;;;;;;;6.08;3.00;;;;;;;13.61;53.94;98417.23;1679568;84;21179;-74
2021/05/06 04:27:15;;;;;;;5.30;2.87;;;;;;;14.35;52.28;98423.23;1743632;82;21144;-75
2021/05/06 04:35:37;;;;;;;6.25;3.12;;;;;;;13.74;53.89;98423.42;1681695;84;21181;-73
2021/05/06 04:37:55;;;;;;;5.17;3.42;;;;;;;13.74;53.89;98423.42;1739596;82;21317;-73
2021/05/06 04:40:55;;;;;;;5.50;3.22;;;;;;;13.68;54.10;98430.22;1742694;82;21128;-74
2021/05/06 04:46:17;;;;;;;7.25;3.42;;;;;;;13.66;54.63;98432.67;1719233;83;21457;-73
2021/05/06 05:07:44;;;;;;;6.75;3.65;;;;;;;13.60;54.89;98438.14;1780125;79;23627;-72
2021/05/06 05:12:06;;;;;;;8.45;3.08;;;;;;;13.51;54.99;98450.55;1742388;82;21179;-72
2021/05/06 05:25:06;;;;;;;15.43;3.87;;;;;;;13.55;55.68;98461.19;1717464;83;21778;-72
2021/05/06 05:27:33;;;;;;;14.45;3.70;;;;;;;13.58;55.57;98472.84;1721559;83;21647;-72
2021/05/06 05:30:00;;;;;;;6.53;3.55;;;;;;;13.57;55.63;98469.02;1721201;83;21492;-72
2021/05/06 05:32:27;;;;;;;8.13;3.42;;;;;;;13.57;55.70;98465.03;1724773;82;21326;-73
2021/05/06 05:37:31;;;;;;;9.55;4.70;;;;;;;13.56;55.84;98469.50;1709351;83;21155;-74
2021/05/06 05:42:30;;;;;;;7.50;3.40;;;;;;;13.53;55.85;98472.48;1722917;83;21329;-71
2021/05/06 05:56:06;;;;;;;10.35;3.65;;;;;;;13.43;56.59;98486.38;1729993;81;21305;-72
2021/05/06 05:58:33;;;;;;;10.43;3.22;;;;;;;13.45;56.68;98493.66;1758051;81;21580;-73
2021/05/06 06:01:00;;;;;;;7.37;3.50;;;;;;;13.48;56.76;98498.68;1758044;81;21329;-73
2021/05/06 06:03:28;;;;;;;10.85;3.77;;;;;;;13.57;56.79;98499.05;1757929;81;21175;-73
2021/05/06 06:05:55;;;;;;;9.03;3.75;;;;;;;13.57;56.79;98499.05;1757797;81;21163;-73
2021/05/06 06:08:25;;;;;;;4.83;3.42;;;;;;;13.66;56.76;98505.72;1754423;81;21159;-73
2021/05/06 06:10:52;;;;;;;9.05;4.15;;;;;;;13.73;56.79;98509.42;1727651;83;21208;-73
2021/05/06 06:13:20;;;;;;;9.38;3.87;;;;;;;13.77;56.34;98505.45;1727752;83;21204;-73
2021/05/06 06:15:59;;;;;;;10.40;4.03;;;;;;;13.81;56.52;98508.16;1727816;83;21295;-73
2021/05/06 06:18:32;;;;;;;10.60;4.33;;;;;;;13.85;56.57;98515.28;1727227;83;21338;-73
2021/05/06 06:23:33;;;;;;;6.90;3.90;;;;;;;13.92;56.58;98526.45;1812756;79;22220;-72
2021/05/06 06:26:01;;;;;;;7.03;3.95;;;;;;;13.90;56.58;98538.23;1780092;80;21142;-73
2021/05/06 06:28:35;;;;;;;7.47;3.92;;;;;;;13.96;56.83;98548.73;1792702;80;21623;-73
2021/05/06 06:30:58;;;;;;;7.65;4.28;;;;;;;14.00;56.68;98546.09;1780052;80;21160;-73
2021/05/06 06:33:26;;;;;;;8.35;4.62;;;;;;;14.02;56.80;98540.95;1769968;80;21134;-73
2021/05/06 06:35:53;;;;;;;17.20;6.03;;;;;;;14.06;56.98;98546.27;1767687;80;21543;-73
2021/05/06 06:38:20;;;;;;;5.65;3.60;;;;;;;14.10;57.03;98549.45;1780001;80;21191;-72
2021/05/06 06:40:48;;;;;;;7.78;4.05;;;;;;;14.11;56.95;98555.11;1771864;80;21102;-73
2021/05/06 06:43:15;;;;;;;8.55;3.80;;;;;;;14.10;56.97;98549.45;1761961;80;21699;-72
2021/05/06 06:45:42;;;;;;;9.25;3.60;;;;;;;14.07;57.17;98553.77;1761178;81;21182;-72
2021/05/06 06:48:13;;;;;;;6.67;3.70;;;;;;;14.08;57.45;98558.92;1775394;80;21300;-72
2021/05/06 06:50:40;;;;;;;9.30;4.83;;;;;;;14.12;57.45;98566.09;1772942;80;21575;-72
2021/05/06 06:53:09;;;;;;;9.38;4.50;;;;;;;14.24;57.82;98574.09;1763784;80;21191;-72
2021/05/06 06:55:38;;;;;;;7.62;4.60;;;;;;;14.24;59.65;98580.73;1771417;80;21159;-73
2021/05/06 06:58:13;;;;;;;8.33;4.80;;;;;;;14.13;60.90;98593.02;1764862;80;21135;-72
2021/05/06 07:00:41;;;;;;;6.33;4.67;;;;;;;14.02;61.83;98593.29;1775778;80;21154;-73
2021/05/06 07:03:09;;;;;;;4.58;3.80;;;;;;;13.95;62.48;98601.55;1727626;83;21212;-73
2021/05/06 07:05:36;;;;;;;5.15;3.42;;;;;;;14.05;62.10;98598.28;1735939;81;21191;-73
2021/05/06 07:08:25;;;;;;;7.47;3.17;;;;;;;14.05;62.10;98598.28;1697272;82;21647;-74
2021/05/06 07:10:55;;;;;;;6.17;3.05;;;;;;;14.02;61.41;98591.45;1682604;83;21309;-78
2021/05/06 07:13:22;;;;;;;5.55;3.02;;;;;;;13.91;61.28;98592.58;1703827;83;21185;-74
2021/05/06 07:15:56;;;;;;;7.40;3.17;;;;;;;13.66;62.25;98598.70;1755281;81;21607;-76
2021/05/06 07:18:23;;;;;;;7.47;3.17;;;;;;;13.66;62.25;98598.70;1746035;81;21603;-78
2021/05/06 07:20:51;;;;;;;5.80;2.98;;;;;;;13.60;63.06;98613.45;1737360;81;21150;-77
2021/05/06 07:23:21;;;;;;;4.05;2.52;;;;;;;13.73;63.41;98628.51;1752636;81;21328;-77
2021/05/06 07:25:53;;;;;;;6.55;2.20;;;;;;;13.66;63.03;98639.41;1741572;81;21142;-77
2021/05/06 07:28:38;;;;;;;5.08;2.30;;;;;;;13.66;63.03;98639.41;1706965;83;21635;-77
2021/05/06 07:31:09;;;;;;;4.28;2.40;;;;;;;13.54;63.35;98647.27;1776180;80;21252;-76
2021/05/06 07:33:39;;;;;;;5.12;2.20;;;;;;;13.41;63.81;98651.66;1771587;80;21171;-77
2021/05/06 07:36:10;;;;;;;5.53;3.27;;;;;;;13.30;62.53;98663.80;1760821;80;21289;-79
2021/05/06 07:38:40;;;;;;;5.90;3.30;;;;;;;13.27;62.51;98669.78;1775000;80;21139;-77
2021/05/06 07:41:11;;;;;;;5.08;2.35;;;;;;;13.16;61.93;98676.64;1758092;80;21157;-77
2021/05/06 07:46:32;;;;;;;4.85;2.50;;;;;;;12.93;61.98;98681.04;1812321;78;23147;-77
2021/05/06 07:49:01;;;;;;;3.75;2.30;;;;;;;12.78;62.93;98684.68;1781194;80;21313;-78
2021/05/06 07:51:31;;;;;;;3.95;2.20;;;;;;;12.81;63.52;98685.38;1736241;80;21281;-78
2021/05/06 07:54:06;;;;;;;4.90;2.52;;;;;;;12.94;63.32;98692.48;1754275;80;21289;-77
2021/05/06 07:56:32;;;;;;;6.28;2.60;;;;;;;12.92;62.94;98705.08;1738502;81;21628;-76
2021/05/06 07:59:00;;;;;;;4.65;2.45;;;;;;;12.86;63.40;98704.34;1750768;81;21789;-75
2021/05/06 08:01:28;;;;;;;6.05;3.00;;;;;;;12.90;63.43;98701.25;1736405;82;21179;-75
2021/05/06 08:03:55;;;;;;;5.20;2.52;;;;;;;12.90;63.43;98701.25;1734668;82;21735;-75
2021/05/06 08:06:22;;;;;;;7.50;2.40;;;;;;;13.01;62.55;98702.03;1730547;82;21643;-75
2021/05/06 08:08:52;;;;;;;4.42;2.52;;;;;;;13.22;61.32;98691.97;1723220;83;21175;-75
2021/05/06 08:11:21;;;;;;;5.12;2.58;;;;;;;13.41;61.38;98705.63;1723331;83;21325;-75
2021/05/06 08:13:50;;;;;;;3.47;1.90;;;;;;;13.41;61.38;98705.63;1710400;83;21107;-75
2021/05/06 08:16:17;;;;;;;2.80;2.02;;;;;;;13.39;60.46;98698.80;1727383;83;21193;-75
2021/05/06 08:18:44;;;;;;;3.30;2.00;;;;;;;13.30;60.32;98695.66;1719008;83;21648;-76
2021/05/06 08:21:12;;;;;;;3.25;1.92;;;;;;;13.30;60.32;98695.66;1691496;85;21199;-75
2021/05/06 08:23:40;;;;;;;2.98;2.08;;;;;;;13.34;60.10;98696.55;1693318;84;21287;-77
2021/05/06 08:26:09;;;;;;;3.45;2.33;;;;;;;13.30;59.90;98718.23;1692651;84;21332;-77
2021/05/06 08:28:38;;;;;;;4.53;2.72;;;;;;;13.25;60.08;98707.58;1685887;84;21191;-77
2021/05/06 08:31:06;;;;;;;3.50;2.50;;;;;;;13.35;60.09;98726.58;1691529;84;21179;-78
2021/05/06 08:33:35;;;;;;;2.40;2.10;;;;;;;13.43;60.30;98737.33;1687206;85;21754;-78
2021/05/06 08:36:03;;;;;;;2.77;2.00;;;;;;;13.60;59.28;98744.95;1692206;84;21212;-78
2021/05/06 08:38:31;;;;;;;2.58;1.90;;;;;;;13.53;58.68;98739.42;1687506;84;21318;-78
2021/05/06 08:41:00;;;;;;;4.75;2.12;;;;;;;13.45;59.39;98740.66;1691567;84;21163;-76
2021/05/06 08:43:31;;;;;;;3.10;2.22;;;;;;;13.45;59.83;98747.30;1690639;84;21192;-75
2021/05/06 08:45:58;;;;;;;3.10;2.10;;;;;;;13.42;60.09;98751.59;1677165;84;21148;-76
2021/05/06 08:48:25;;;;;;;3.92;2.25;;;;;;;13.47;60.31;98749.31;1667064;85;21263;-78
2021/05/06 08:50:54;;;;;;;2.83;2.02;;;;;;;13.59;59.80;98750.77;1682532;84;21180;-76
2021/05/06 08:53:22;;;;;;;3.27;2.40;;;;;;;13.78;58.81;98768.86;1670381;85;21136;-75
2021/05/06 08:55:53;;;;;;;4.12;2.27;;;;;;;13.86;59.02;98782.70;1659840;84;21176;-74
2021/05/06 08:58:21;;;;;;;2.27;1.90;;;;;;;13.86;59.02;98782.70;1722891;83;21433;-75
2021/05/06 09:00:48;;;;;;;3.00;2.00;;;;;;;13.96;58.99;98780.80;1722321;83;21306;-75
2021/05/06 09:03:17;;;;;;;2.92;1.90;;;;;;;14.05;58.44;98768.41;1736341;81;21180;-75
2021/05/06 09:06:18;;;;;;;4.67;2.33;;;;;;;14.17;58.73;98772.97;1733548;82;21193;-76
2021/05/06 09:08:51;;;;;;;4.87;2.27;;;;;;;14.38;58.19;98765.98;1666000;84;21335;-76
2021/05/06 09:11:35;;;;;;;2.90;2.00;;;;;;;14.38;58.19;98765.98;1712702;83;21338;-76
2021/05/06 09:14:08;;;;;;;3.47;1.95;;;;;;;14.50;57.67;98768.73;1716767;81;21336;-75
2021/05/06 09:16:36;;;;;;;4.62;2.52;;;;;;;14.65;57.39;98766.33;1712880;81;21260;-75
2021/05/06 09:19:06;;;;;;;3.30;2.35;;;;;;;14.87;57.26;98768.95;1704735;83;21111;-75
2021/05/06 09:21:36;;;;;;;6.05;4.30;;;;;;;15.14;56.91;98755.55;1724265;81;21289;-75
2021/05/06 09:24:17;;;;;;;4.60;2.80;;;;;;;15.40;55.68;98770.12;1699473;83;21138;-76
2021/05/06 09:26:42;;;;;;;5.42;2.27;;;;;;;15.56;54.77;98763.49;1728007;81;21170;-75
2021/05/06 09:29:11;;;;;;;4.28;2.40;;;;;;;15.70;54.83;98772.67;1719380;81;21334;-75
2021/05/06 09:31:40;;;;;;;3.47;2.40;;;;;;;15.84;54.40;98779.22;1719674;83;21742;-74
2021/05/06 09:34:11;;;;;;;3.40;2.17;;;;;;;15.91;49.75;98786.52;1727550;81;21586;-74
2021/05/06 09:36:39;;;;;;;4.17;2.27;;;;;;;15.76;50.16;98789.00;1712335;83;21789;-73
2021/05/06 09:39:08;;;;;;;4.83;2.40;;;;;;;15.77;51.17;98791.50;1728110;81;21575;-73
2021/05/06 09:41:38;;;;;;;3.47;2.52;;;;;;;15.92;50.35;98793.53;1723568;81;21296;-74
2021/05/06 09:44:14;;;;;;;4.05;2.55;;;;;;;16.04;49.16;98793.55;1698526;84;21154;-74
2021/05/06 09:46:55;;;;;;;4.78;2.40;;;;;;;16.19;49.63;98802.55;1732562;81;21319;-73
2021/05/06 09:49:18;;;;;;;4.15;2.58;;;;;;;16.43;48.90;98794.16;1739113;82;21320;-73
2021/05/06 09:51:49;;;;;;;4.25;2.40;;;;;;;16.59;48.90;98793.31;1736194;82;21140;-73
2021/05/06 09:54:22;;;;;;;5.47;2.62;;;;;;;16.65;48.22;98790.45;1745872;81;21143;-73
2021/05/06 09:57:04;;;;;;;6.05;2.75;;;;;;;16.64;48.06;98798.97;1711813;84;21312;-73
2021/05/06 09:59:37;;;;;;;4.95;2.30;;;;;;;16.74;47.20;98799.28;1745477;81;21782;-73
2021/05/06 10:02:13;;;;;;;6.40;2.47;;;;;;;16.76;46.71;98819.45;1736637;81;21171;-74
2021/05/06 10:04:44;;;;;;;3.62;2.70;;;;;;;16.79;46.05;98808.45;1743327;82;21581;-75
2021/05/06 10:07:20;;;;;;;2.40;2.10;;;;;;;16.82;46.53;98820.12;1742571;81;21120;-74
2021/05/06 10:10:02;;;;;;;4.62;2.52;;;;;;;16.85;46.05;98821.13;1739456;82;21711;-74
2021/05/06 10:12:37;;;;;;;6.00;2.90;;;;;;;16.84;45.57;98819.94;1749572;81;21119;-74
2021/05/06 10:15:09;;;;;;;4.65;2.70;;;;;;;16.81;45.46;98823.78;1734833;82;21155;-75
2021/05/06 10:17:39;;;;;;;4.60;2.70;;;;;;;16.79;44.68;98824.48;1743021;81;21649;-74
2021/05/06 10:20:08;;;;;;;3.22;2.52;;;;;;;16.76;44.64;98820.80;1734901;81;21755;-75
2021/05/06 10:22:35;;;;;;;3.98;2.67;;;;;;;16.76;44.53;98824.80;1747116;82;21184;-75
2021/05/06 10:25:07;;;;;;;3.75;2.62;;;;;;;16.84;44.90;98821.27;1742885;81;21160;-75
2021/05/06 10:27:35;;;;;;;3.15;2.35;;;;;;;17.00;44.92;98825.78;1749653;82;21162;-75
2021/05/06 10:30:06;;;;;;;4.60;2.50;;;;;;;17.15;44.20;98828.06;1749889;82;21177;-75
2021/05/06 10:32:34;;;;;;;6.55;3.47;;;;;;;17.26;45.00;98836.18;1735310;81;21115;-76
2021/05/06 10:35:09;;;;;;;2.80;2.40;;;;;;;17.33;43.97;98830.48;1723100;83;21682;-76
2021/05/06 10:37:40;;;;;;;11.78;3.08;;;;;;;17.34;43.50;98827.30;1730506;81;21175;-77
2021/05/06 10:40:38;;;;;;;3.27;2.30;;;;;;;17.28;43.35;98836.03;1737067;81;21172;-75
2021/05/06 10:43:28;;;;;;;3.50;2.55;;;;;;;17.20;41.54;98834.23;1736823;81;21187;-74
2021/05/06 10:46:01;;;;;;;4.37;2.17;;;;;;;16.92;39.87;98843.14;1738039;81;21353;-73
2021/05/06 10:49:00;;;;;;;3.70;2.20;;;;;;;16.65;40.81;98838.50;1717973;82;21187;-74
2021/05/06 10:51:46;;;;;;;4.05;2.08;;;;;;;16.42;40.71;98851.23;1738395;81;21143;-74
2021/05/06 10:54:42;;;;;;;2.05;1.80;;;;;;;16.39;41.80;98848.88;1741321;80;21180;-74
2021/05/06 10:57:19;;;;;;;3.75;1.98;;;;;;;16.51;41.37;98848.88;1738664;81;21342;-74
2021/05/06 10:59:49;;;;;;;3.30;2.00;;;;;;;16.55;39.72;98843.53;1750043;82;21151;-74
2021/05/06 11:02:45;;;;;;;4.72;2.02;;;;;;;16.64;41.76;98840.86;1708826;82;21173;-74
2021/05/06 11:05:24;;;;;;;3.65;2.10;;;;;;;16.85;40.28;98839.81;1712240;82;21192;-74
2021/05/06 11:08:09;;;;;;;5.40;2.27;;;;;;;16.83;39.94;98840.48;1688119;84;21199;-74
2021/05/06 11:10:49;;;;;;;3.37;2.10;;;;;;;16.74;41.60;98846.84;1697810;84;21190;-74
2021/05/06 11:13:18;;;;;;;4.55;2.22;;;;;;;16.78;41.07;98845.50;1736741;82;21164;-74
2021/05/06 11:15:45;;;;;;;5.97;2.42;;;;;;;16.78;41.00;98834.00;1742860;81;21179;-76
2021/05/06 11:18:43;;;;;;;2.92;2.30;;;;;;;16.96;40.56;98843.16;1683223;85;21206;-75
2021/05/06 11:21:20;;;;;;;2.92;2.10;;;;;;;17.16;40.14;98840.41;1734504;81;21176;-75
2021/05/06 11:23:51;;;;;;;3.45;2.20;;;;;;;17.23;38.66;98846.41;1702585;82;21211;-75
2021/05/06 11:26:18;;;;;;;5.10;2.15;;;;;;;17.16;39.53;98844.91;1736209;82;21603;-75
2021/05/06 11:28:46;;;;;;;4.03;1.95;;;;;;;17.14;39.83;98851.77;1738397;81;21328;-75
2021/05/06 11:31:15;;;;;;;2.77;1.70;;;;;;;17.26;39.75;98852.73;1742396;82;21159;-76
2021/05/06 11:33:43;;;;;;;2.58;1.67;;;;;;;17.29;37.28;98847.02;1742141;80;21274;-74
2021/05/06 11:36:20;;;;;;;4.03;2.10;;;;;;;17.17;37.08;98852.77;1727909;80;21160;-75
2021/05/06 11:38:54;;;;;;;3.50;2.00;;;;;;;16.97;38.23;98861.67;1727013;80;21281;-76
2021/05/06 11:41:32;;;;;;;2.90;1.80;;;;;;;16.88;38.78;98856.00;1747093;80;21342;-75
2021/05/06 11:44:01;;;;;;;3.37;1.82;;;;;;;16.88;39.18;98858.16;1717507;83;21187;-75
2021/05/06 11:46:36;;;;;;;2.80;2.00;;;;;;;17.04;39.05;98865.82;1732652;81;21187;-75
2021/05/06 11:49:09;;;;;;;4.35;2.00;;;;;;;17.15;38.49;98862.78;1743612;81;21309;-76
2021/05/06 11:51:41;;;;;;;3.95;1.82;;;;;;;17.24;39.46;98863.59;1732893;81;21598;-75
2021/05/06 11:54:20;;;;;;;3.52;1.90;;;;;;;17.40;38.38;98857.34;1742020;81;21187;-76
2021/05/06 11:57:01;;;;;;;6.72;2.00;;;;;;;17.50;38.19;98861.14;1729595;82;21155;-76
2021/05/06 11:59:30;;;;;;;3.10;1.90;;;;;;;17.60;39.01;98863.61;1734882;81;21155;-75
2021/05/06 12:02:08;;;;;;;3.00;2.00;;;;;;;17.69;38.49;98867.90;1732010;81;21132;-75
2021/05/06 12:04:37;;;;;;;6.28;2.30;;;;;;;17.76;38.22;98864.01;1711223;84;21615;-75
2021/05/06 12:07:17;;;;;;;3.67;1.92;;;;;;;17.76;37.66;98858.66;1745263;81;21139;-76
2021/05/06 12:09:45;;;;;;;2.70;1.62;;;;;;;17.77;37.67;98850.45;1732201;81;21681;-75
2021/05/06 12:12:25;;;;;;;2.55;1.70;;;;;;;17.82;37.89;98853.43;1735185;81;21136;-75
2021/05/06 12:14:59;;;;;;;3.22;1.80;;;;;;;17.79;37.69;98854.31;1735870;82;21711;-76
2021/05/06 12:17:26;;;;;;;;;;;;;;;17.77;36.66;98849.63;1738297;81;21630;-75
2021/05/06 12:19:54;;;;;;;4.83;2.00;;;;;;;17.85;37.39;98847.75;1741666;81;20197;-75
2021/05/06 12:22:23;;;;;;;4.45;1.80;;;;;;;18.00;37.47;98844.33;1683414;82;21325;-76
2021/05/06 12:24:54;;;;;;;3.02;1.55;;;;;;;18.15;35.95;98844.39;1741665;81;21136;-76
2021/05/06 12:27:28;;;;;;;3.00;1.80;;;;;;;18.19;35.56;98844.35;1732379;81;21188;-75
2021/05/06 12:30:02;;;;;;;6.67;3.40;;;;;;;18.13;35.22;98857.95;1729661;82;21294;-75
2021/05/06 12:32:34;;;;;;;3.00;1.85;;;;;;;17.99;34.88;98847.52;1731477;81;21588;-76
2021/05/06 12:35:03;;;;;;;4.85;1.80;;;;;;;17.75;34.49;98851.16;1729206;81;21722;-73
2021/05/06 12:37:31;;;;;;;2.65;1.80;;;;;;;17.32;35.47;98853.38;1740051;81;21772;-73
2021/05/06 12:39:59;;;;;;;2.55;1.85;;;;;;;16.92;37.00;98849.82;1741188;81;21512;-74
2021/05/06 12:42:34;;;;;;;4.00;1.80;;;;;;;16.81;37.67;98856.34;1728511;81;21175;-73
2021/05/06 12:45:04;;;;;;;7.62;2.98;;;;;;;16.84;37.24;98854.65;1665859;84;21127;-73
2021/05/06 12:47:43;;;;;;;4.58;1.90;;;;;;;16.86;37.79;98856.14;1678997;83;21196;-74
2021/05/06 12:50:15;;;;;;;2.80;2.20;;;;;;;16.82;37.37;98852.16;1663608;84;21331;-73
2021/05/06 12:52:46;;;;;;;3.55;1.77;;;;;;;16.76;38.55;98851.50;1708708;82;21289;-73
2021/05/06 12:55:31;;;;;;;3.50;2.00;;;;;;;16.84;38.40;98860.84;1682864;83;21164;-73
2021/05/06 12:58:15;;;;;;;3.72;2.17;;;;;;;16.94;38.37;98855.84;1704555;82;21639;-74
2021/05/06 13:00:56;;;;;;;4.85;3.00;;;;;;;17.00;38.34;98856.49;1699984;83;21293;-74
2021/05/06 13:03:32;;;;;;;17.10;3.80;;;;;;;17.06;38.31;98850.47;1707396;82;21238;-73
2021/05/06 13:06:09;;;;;;;4.45;2.52;;;;;;;17.15;38.08;98843.27;1698816;82;21697;-76
2021/05/06 13:08:42;;;;;;;3.42;2.10;;;;;;;17.24;37.16;98838.70;1666501;85;21662;-75
2021/05/06 13:11:13;;;;;;;4.67;2.40;;;;;;;17.38;36.99;98837.14;1700994;83;21159;-76
2021/05/06 13:13:45;;;;;;;4.20;2.37;;;;;;;17.53;35.99;98826.03;1695768;84;21611;-76
2021/05/06 13:16:36;;;;;;;2.47;1.70;;;;;;;17.66;35.79;98827.64;1700452;83;21336;-75
2021/05/06 13:19:08;;;;;;;9.08;2.00;;;;;;;17.77;35.62;98840.27;1707768;84;21324;-76
2021/05/06 13:21:37;;;;;;;4.10;2.22;;;;;;;17.86;35.25;98832.52;1695518;83;21183;-76
2021/05/06 13:24:08;;;;;;;2.50;1.80;;;;;;;17.95;34.63;98842.69;1684689;85;21153;-75
2021/05/06 13:26:39;;;;;;;5.83;2.00;;;;;;;17.93;34.25;98846.01;1698916;83;21494;-75
2021/05/06 13:29:08;;;;;;;3.15;2.00;;;;;;;17.82;34.08;98840.06;1684215;85;21633;-74
2021/05/06 13:31:38;;;;;;;7.70;2.00;;;;;;;17.63;34.33;98850.70;1674503;85;21624;-73
2021/05/06 13:34:18;;;;;;;4.15;1.77;;;;;;;17.44;34.43;98847.98;1685204;85;22181;-73
2021/05/06 13:37:06;;;;;;;4.30;2.90;;;;;;;17.29;34.85;98845.69;1665663;84;22196;-73
2021/05/06 13:39:36;;;;;;;3.62;2.20;;;;;;;17.19;34.77;98852.08;1687849;85;21179;-74
2021/05/06 13:42:03;;;;;;;7.17;2.08;;;;;;;17.07;34.68;98857.45;1689190;83;21158;-74
2021/05/06 13:44:31;;;;;;;3.35;1.85;;;;;;;17.04;35.23;98852.47;1719681;83;21195;-74
2021/05/06 13:47:04;;;;;;;4.45;1.82;;;;;;;17.09;34.98;98858.13;1714701;82;21208;-75
2021/05/06 13:49:33;;;;;;;4.97;1.85;;;;;;;17.12;34.72;98857.80;1713201;82;21100;-74
2021/05/06 13:52:01;;;;;;;2.60;1.92;;;;;;;17.17;34.14;98861.27;1730724;82;21175;-74
2021/05/06 13:54:28;;;;;;;2.47;1.80;;;;;;;17.16;34.70;98854.25;1737574;81;21156;-74
2021/05/06 13:56:57;;;;;;;2.65;1.90;;;;;;;17.18;34.70;98846.91;1745774;81;21163;-74
2021/05/06 13:59:24;;;;;;;3.52;1.70;;;;;;;17.18;34.57;98857.09;1723531;82;21203;-75
2021/05/06 14:01:54;;;;;;;6.12;2.00;;;;;;;17.19;34.16;98850.74;1739274;81;21179;-75
2021/05/06 14:04:21;;;;;;;3.10;1.85;;;;;;;17.24;34.11;98854.73;1734520;81;21555;-75
2021/05/06 14:06:49;;;;;;;5.15;2.33;;;;;;;17.32;34.05;98860.05;1734666;81;21152;-75
2021/05/06 14:09:18;;;;;;;4.83;2.00;;;;;;;17.30;33.37;98862.91;1736932;81;21167;-75
2021/05/06 14:11:48;;;;;;;4.12;1.90;;;;;;;17.25;33.96;98860.41;1738163;81;21261;-74
2021/05/06 14:14:17;;;;;;;6.37;2.10;;;;;;;17.18;34.23;98863.77;1699070;82;21171;-74
2021/05/06 14:16:44;;;;;;;4.17;2.17;;;;;;;17.09;33.75;98856.79;1742310;81;21143;-74
2021/05/06 14:19:13;;;;;;;4.85;1.90;;;;;;;16.92;33.56;98851.16;1744322;81;21321;-74
2021/05/06 14:21:46;;;;;;;5.08;1.95;;;;;;;16.87;34.34;98856.48;1737780;81;21577;-74
2021/05/06 14:24:14;;;;;;;4.05;1.92;;;;;;;16.90;33.49;98862.50;1736475;82;21184;-76
2021/05/06 14:26:48;;;;;;;5.00;2.20;;;;;;;16.86;31.98;98860.16;1739819;81;21775;-76
2021/05/06 14:29:16;;;;;;;3.15;2.10;;;;;;;16.91;32.42;98865.54;1737625;81;21336;-76
2021/05/06 14:31:44;;;;;;;3.22;1.98;;;;;;;17.00;32.56;98870.67;1725052;81;22088;-76
2021/05/06 14:34:11;;;;;;;4.37;2.42;;;;;;;17.08;32.28;98864.47;1735636;81;21195;-75
2021/05/06 14:36:39;;;;;;;3.85;2.02;;;;;;;17.14;32.72;98869.12;1707441;82;21132;-75
2021/05/06 14:39:08;;;;;;;4.05;2.02;;;;;;;17.10;32.02;98866.48;1742191;81;21291;-75
2021/05/06 14:41:38;;;;;;;6.08;2.30;;;;;;;16.93;32.39;98871.04;1737378;81;21528;-75
2021/05/06 14:44:05;;;;;;;7.58;2.60;;;;;;;16.88;32.67;98877.36;1740020;81;21293;-75
2021/05/06 14:46:32;;;;;;;5.20;2.22;;;;;;;16.88;33.01;98872.84;1737381;81;21207;-75
2021/05/06 14:49:00;;;;;;;11.05;3.08;;;;;;;16.92;32.37;98871.19;1751168;81;21152;-76
2021/05/06 14:51:27;;;;;;;8.60;3.47;;;;;;;16.91;32.43;98873.55;1742170;81;21159;-75
2021/05/06 14:53:54;;;;;;;10.32;5.10;;;;;;;16.93;32.45;98868.85;1753625;81;21600;-75
2021/05/06 14:56:22;;;;;;;5.70;3.30;;;;;;;16.98;32.64;98872.70;1724628;82;21201;-75
2021/05/06 14:58:49;;;;;;;12.75;8.10;;;;;;;17.01;32.31;98882.20;1747766;81;21194;-75
2021/05/06 15:01:16;;;;;;;11.10;3.10;;;;;;;17.00;32.60;98879.20;1752658;82;21676;-75
2021/05/06 15:03:43;;;;;;;5.70;2.55;;;;;;;16.98;32.64;98875.37;1752199;81;21160;-76
2021/05/06 15:06:13;;;;;;;6.90;2.27;;;;;;;17.00;32.88;98885.88;1730935;81;21187;-77
2021/05/06 15:08:44;;;;;;;5.25;2.27;;;;;;;16.99;32.51;98874.85;1750056;81;21124;-77
2021/05/06 15:11:11;;;;;;;14.53;2.87;;;;;;;16.98;32.14;98879.38;1739835;81;21185;-77
2021/05/06 15:13:38;;;;;;;5.42;2.30;;;;;;;16.96;32.00;98883.22;1734320;82;21660;-77
2021/05/06 15:16:06;;;;;;;8.58;2.77;;;;;;;16.91;32.12;98888.23;1760484;81;21200;-77